Cleveland, OH (44126)

1:14 AM EDT on May 06, 2015 (GMT -0400)
North of Lorain | | Change Station
CLOSE
Current Station
Personal Weather Station
Location: Fairview Park, OH
Elevation: 791 ft
Nearby Weather Stations

Elev 791 ft 41.44 °N, 81.87 °W | Updated 1 second ago

Rain
Rain
56.7 °F
Feels Like 56.7 °F
N
0.0
Wind Variable Wind from SE
Gusts 0.0 mph

Today
High -- | Low -- °F
--% Chance of Precip.
Yesterday
High -- | Low -- °F
Precip. -- in
6:18 AM 8:30 PM
Waning Gibbous, 96% visible
Pressure 30.26 in
Visibility 5.0 miles
Clouds Scattered Clouds 7000 ft
Mostly Cloudy 10000 ft
Overcast 20000 ft
Dew Point 55 °F
Humidity 94%
Rainfall 0.25 in
Snow Depth Not available.
UV 0.0 out of 12
Pollen 2.20 out of 12
Air Quality Not available.
Flu Activity Regional
METAR KCLE 060451Z 00000KT 5SM BR SCT070 BKN100 OVC200 15/14 A3026 RMK AO2 PK WND 27027/0403 RAB06E35 TSE27 SLP246 P0003 T01500139 402060100

More Conditions Fewer Conditions

Pressure 30.26 in
Visibility 5.0 miles
Clouds Scattered Clouds 7000 ft
Mostly Cloudy 10000 ft
Overcast 20000 ft
Dew Point 55 °F
Humidity 94%
Rainfall 0.25 in
Snow Depth Not available.
UV 0.0 out of 12
Pollen 2.20 out of 12
Air Quality Not available.
Flu Activity Regional
METAR KCLE 060451Z 00000KT 5SM BR SCT070 BKN100 OVC200 15/14 A3026 RMK AO2 PK WND 27027/0403 RAB06E35 TSE27 SLP246 P0003 T01500139 402060100

More Conditions Fewer Conditions

10-Day Weather Forecast

Almanac

Astronomy

May. 06, 2015 Rise Set
Actual Time
Civil Twilight
Nautical Twilight
Astronomical Twilight
Moon
Length of Visible Light
Length of Day
Tomorrow will be .
, % of the Moon is Illuminated

Today's Extremes

State Highs State Lows

Community

WunderPhotos

Upload Photos

1,818,838 photos uploaded!

WunderBlogs® & News

Nearby

Air Quality

  Air Quality AQ Index Pollutant
Not available.

Snow Depth

Station Depth Elevation

Earthquake Activity

City Distance Mag. Time & Date
Minimum magnitude displayed is 2.5.

Coastal Water Temperatures

Place Temperature

Stations

Nearby Weather Stations

Station Location Temp. Windchill Dew Point Humidity Wind Precip. Elev Updated Type